Time;durP1;ratioP1;P1;durP2;ratioP2;P2;SDS_P1;SDS_P2;PMS_P1;PMS_P2;Temp;Humidity;BMP_temperature;BMP_pressure;BME280_temperature;BME280_humidity;BME280_pressure;Samples;Min_cycle;Max_cycle;Signal;HPM_P1;HPM_P2
2023/12/25 00:01:11;;;;;;;15.88;2.70;;;;;;;;;;5023982;28;20352;-77
2023/12/25 00:03:37;;;;;;;11.88;2.22;;;;;;;;;;5009119;28;20265;-77
2023/12/25 00:06:03;;;;;;;13.07;2.17;;;;;;;;;;5010168;28;20730;-76
2023/12/25 00:08:28;;;;;;;13.73;2.15;;;;;;;;;;5020434;28;20201;-76
2023/12/25 00:10:53;;;;;;;11.25;2.67;;;;;;;;;;5022875;28;20190;-76
2023/12/25 00:13:19;;;;;;;9.73;2.40;;;;;;;;;;4995255;28;20182;-77
2023/12/25 00:15:44;;;;;;;11.57;1.98;;;;;;;;;;5028808;28;20277;-76
2023/12/25 00:18:10;;;;;;;11.80;1.70;;;;;;;;;;4995850;28;20653;-78
2023/12/25 00:20:35;;;;;;;7.80;1.80;;;;;;;;;;5028597;28;20308;-76
2023/12/25 00:23:01;;;;;;;11.30;2.10;;;;;;;;;;5048503;28;20738;-76
2023/12/25 00:25:26;;;;;;;15.18;2.72;;;;;;;;;;5014726;28;20378;-77
2023/12/25 00:27:52;;;;;;;8.30;1.80;;;;;;;;;;4995762;28;20202;-76
2023/12/25 00:30:18;;;;;;;6.80;1.63;;;;;;;;;;5032297;28;20190;-75
2023/12/25 00:32:44;;;;;;;7.90;1.70;;;;;;;;;;5026248;28;20188;-76
2023/12/25 00:35:09;;;;;;;7.60;1.42;;;;;;;;;;5008087;28;20186;-75
2023/12/25 00:37:34;;;;;;;7.57;1.75;;;;;;;;;;5020495;28;20616;-76
2023/12/25 00:40:00;;;;;;;6.05;1.42;;;;;;;;;;5004405;28;20198;-76
2023/12/25 00:42:25;;;;;;;7.82;1.45;;;;;;;;;;5026942;28;20199;-75
2023/12/25 00:44:51;;;;;;;8.52;1.52;;;;;;;;;;5011322;28;20436;-77
2023/12/25 00:47:16;;;;;;;5.30;1.27;;;;;;;;;;5028623;28;20270;-76
2023/12/25 00:49:41;;;;;;;5.47;1.33;;;;;;;;;;5025907;28;20198;-77
2023/12/25 00:52:07;;;;;;;9.07;1.40;;;;;;;;;;4995515;28;20625;-76
2023/12/25 00:54:35;;;;;;;8.98;1.90;;;;;;;;;;5028737;28;20186;-76
2023/12/25 00:57:00;;;;;;;6.70;1.70;;;;;;;;;;5011695;28;20213;-77
2023/12/25 00:59:26;;;;;;;8.05;1.70;;;;;;;;;;5015706;28;20269;-77
2023/12/25 01:01:51;;;;;;;10.75;1.88;;;;;;;;;;5020379;28;20260;-77
2023/12/25 01:04:17;;;;;;;11.00;2.55;;;;;;;;;;5010276;28;20593;-76
2023/12/25 01:06:42;;;;;;;10.43;1.92;;;;;;;;;;5023680;28;20206;-76
2023/12/25 01:09:08;;;;;;;9.25;1.40;;;;;;;;;;5015144;28;20273;-77
2023/12/25 01:11:40;;;;;;;8.48;2.15;;;;;;;;;;5013224;28;20435;-75
2023/12/25 01:14:06;;;;;;;7.85;1.63;;;;;;;;;;5001194;28;20194;-77
2023/12/25 01:16:31;;;;;;;7.05;1.40;;;;;;;;;;5017372;28;20195;-77
2023/12/25 01:18:57;;;;;;;10.23;2.10;;;;;;;;;;5019831;28;20230;-77
2023/12/25 01:21:22;;;;;;;9.02;1.60;;;;;;;;;;5031318;28;20553;-77
2023/12/25 01:23:47;;;;;;;10.05;1.80;;;;;;;;;;4998481;28;20186;-77
2023/12/25 01:26:13;;;;;;;9.98;2.60;;;;;;;;;;5019083;28;20324;-78
2023/12/25 01:28:38;;;;;;;10.20;2.03;;;;;;;;;;5020952;28;20661;-77
2023/12/25 01:31:05;;;;;;;10.00;1.90;;;;;;;;;;5013431;28;20189;-76
2023/12/25 01:33:30;;;;;;;7.88;1.55;;;;;;;;;;5031219;28;20189;-76
2023/12/25 01:35:56;;;;;;;11.18;2.03;;;;;;;;;;5030473;28;20560;-76
2023/12/25 01:38:21;;;;;;;9.05;1.70;;;;;;;;;;4997349;28;20247;-76
2023/12/25 01:40:47;;;;;;;9.23;2.00;;;;;;;;;;5016035;28;20292;-76
2023/12/25 01:43:12;;;;;;;9.82;1.55;;;;;;;;;;5014125;28;20580;-76
2023/12/25 01:45:38;;;;;;;11.93;1.90;;;;;;;;;;5013511;28;20186;-76
2023/12/25 01:48:04;;;;;;;7.90;1.88;;;;;;;;;;5028049;28;20225;-76
2023/12/25 01:50:30;;;;;;;7.47;1.73;;;;;;;;;;5031592;28;20248;-76
2023/12/25 01:52:56;;;;;;;6.82;1.30;;;;;;;;;;5025258;28;20201;-76
2023/12/25 01:55:22;;;;;;;6.47;1.70;;;;;;;;;;5015922;28;20190;-76
2023/12/25 01:57:47;;;;;;;8.35;2.00;;;;;;;;;;4998400;28;20685;-77
2023/12/25 02:00:13;;;;;;;7.05;1.65;;;;;;;;;;5020093;28;20213;-75
2023/12/25 02:02:42;;;;;;;6.00;1.48;;;;;;;;;;5008766;28;20237;-76
2023/12/25 02:05:08;;;;;;;6.18;1.45;;;;;;;;;;5004863;28;20673;-76
2023/12/25 02:07:36;;;;;;;10.80;1.50;;;;;;;;;;5029205;28;20189;-76
2023/12/25 02:10:02;;;;;;;8.63;1.40;;;;;;;;;;5023475;28;20186;-77
2023/12/25 02:12:27;;;;;;;11.25;1.85;;;;;;;;;;5012384;28;20311;-78
2023/12/25 02:14:53;;;;;;;11.43;1.77;;;;;;;;;;4996413;28;20640;-77
2023/12/25 02:17:19;;;;;;;8.30;1.50;;;;;;;;;;5030395;28;20198;-76
2023/12/25 02:19:45;;;;;;;8.55;1.73;;;;;;;;;;4991649;28;1148465;-77
2023/12/25 02:22:12;;;;;;;6.20;1.30;;;;;;;;;;4995845;28;20194;-77
2023/12/25 02:24:44;;;;;;;8.95;1.55;;;;;;;;;;5013164;28;20182;-75
2023/12/25 02:27:09;;;;;;;6.25;1.50;;;;;;;;;;5010821;28;20616;-77
2023/12/25 02:29:35;;;;;;;9.90;1.85;;;;;;;;;;5011884;28;20175;-76
2023/12/25 02:32:01;;;;;;;9.10;2.38;;;;;;;;;;5012619;28;20182;-77
2023/12/25 02:34:26;;;;;;;9.07;1.77;;;;;;;;;;5029876;28;20269;-76
2023/12/25 02:36:51;;;;;;;8.15;1.38;;;;;;;;;;5020552;28;20191;-76
2023/12/25 02:39:17;;;;;;;9.18;1.50;;;;;;;;;;5021436;28;20194;-77
2023/12/25 02:41:43;;;;;;;7.63;1.50;;;;;;;;;;5030982;28;20289;-76
2023/12/25 02:44:08;;;;;;;9.50;1.50;;;;;;;;;;5026302;28;20191;-78
2023/12/25 02:46:34;;;;;;;7.32;1.55;;;;;;;;;;5020629;28;20194;-77
2023/12/25 02:48:59;;;;;;;8.32;1.83;;;;;;;;;;5027367;28;20261;-76
2023/12/25 02:51:25;;;;;;;10.70;1.50;;;;;;;;;;5002167;28;20189;-78
2023/12/25 02:53:50;;;;;;;7.63;1.23;;;;;;;;;;5013521;28;20200;-78
2023/12/25 02:56:16;;;;;;;7.28;1.40;;;;;;;;;;5019997;28;20252;-77
2023/12/25 02:58:41;;;;;;;6.07;1.42;;;;;;;;;;5010055;28;20202;-76
2023/12/25 03:01:06;;;;;;;10.68;1.60;;;;;;;;;;5023907;28;20681;-77
2023/12/25 03:03:32;;;;;;;7.47;1.30;;;;;;;;;;4995865;28;20213;-78
2023/12/25 03:05:57;;;;;;;12.40;1.80;;;;;;;;;;5011822;28;20632;-76
2023/12/25 03:08:24;;;;;;;8.63;1.88;;;;;;;;;;5029564;28;20269;-76
2023/12/25 03:10:49;;;;;;;11.77;1.73;;;;;;;;;;5009213;28;20596;-76
2023/12/25 03:13:15;;;;;;;7.63;1.70;;;;;;;;;;5012673;28;20228;-78
2023/12/25 03:15:40;;;;;;;13.30;1.63;;;;;;;;;;5030814;28;20252;-76
2023/12/25 03:18:06;;;;;;;11.25;2.40;;;;;;;;;;5015502;28;20221;-76
2023/12/25 03:20:31;;;;;;;11.23;1.63;;;;;;;;;;4996457;28;20319;-75
2023/12/25 03:22:57;;;;;;;7.13;1.30;;;;;;;;;;4992325;28;20373;-76
2023/12/25 03:25:23;;;;;;;9.05;1.90;;;;;;;;;;4997313;28;20236;-76
2023/12/25 03:27:49;;;;;;;11.73;1.98;;;;;;;;;;5002879;28;20674;-77
2023/12/25 03:30:15;;;;;;;7.55;1.50;;;;;;;;;;4992265;28;20531;-76
2023/12/25 03:32:40;;;;;;;6.75;1.85;;;;;;;;;;5007564;28;20197;-76
2023/12/25 03:35:06;;;;;;;5.45;1.52;;;;;;;;;;5021012;28;20191;-77
2023/12/25 03:37:31;;;;;;;8.52;1.33;;;;;;;;;;5001406;28;20558;-76
2023/12/25 03:39:59;;;;;;;7.05;1.63;;;;;;;;;;5033119;28;20294;-77
2023/12/25 03:42:25;;;;;;;7.68;1.42;;;;;;;;;;5004406;28;20212;-77
2023/12/25 03:44:50;;;;;;;6.82;1.55;;;;;;;;;;4993922;28;20533;-76
2023/12/25 03:47:16;;;;;;;9.02;1.60;;;;;;;;;;4996232;28;20198;-76
2023/12/25 03:49:41;;;;;;;6.82;1.42;;;;;;;;;;5009284;28;20187;-76
2023/12/25 03:52:07;;;;;;;7.18;1.25;;;;;;;;;;5006636;28;20237;-76
2023/12/25 03:54:32;;;;;;;7.85;1.48;;;;;;;;;;5010274;28;20264;-76
2023/12/25 03:56:57;;;;;;;8.10;2.03;;;;;;;;;;5009909;28;20194;-76
2023/12/25 03:59:23;;;;;;;10.07;1.40;;;;;;;;;;5008762;28;20190;-76
2023/12/25 04:01:48;;;;;;;5.22;1.13;;;;;;;;;;5017222;28;20210;-78
2023/12/25 04:04:14;;;;;;;6.85;1.30;;;;;;;;;;5010090;28;20197;-76
2023/12/25 04:06:39;;;;;;;4.50;1.02;;;;;;;;;;4999209;28;20218;-77
2023/12/25 04:09:05;;;;;;;7.40;1.00;;;;;;;;;;5007742;28;20442;-76
2023/12/25 04:11:30;;;;;;;8.55;1.30;;;;;;;;;;5002896;28;20671;-76
2023/12/25 04:13:56;;;;;;;8.85;1.45;;;;;;;;;;5006413;28;20222;-76
2023/12/25 04:16:23;;;;;;;7.15;1.02;;;;;;;;;;5013247;28;20582;-77
2023/12/25 04:18:49;;;;;;;9.38;1.65;;;;;;;;;;5002455;28;20296;-76
2023/12/25 04:21:21;;;;;;;10.05;1.50;;;;;;;;;;5008040;28;20603;-76
2023/12/25 04:23:47;;;;;;;9.80;1.25;;;;;;;;;;5007449;28;20668;-76
2023/12/25 04:26:13;;;;;;;8.13;1.30;;;;;;;;;;5007992;28;20187;-76
2023/12/25 04:28:38;;;;;;;5.00;1.10;;;;;;;;;;5008444;28;20221;-76
2023/12/25 04:31:03;;;;;;;7.03;1.42;;;;;;;;;;4996358;28;20201;-76
2023/12/25 04:33:29;;;;;;;6.70;1.08;;;;;;;;;;5021349;28;20190;-76
2023/12/25 04:35:54;;;;;;;7.40;1.50;;;;;;;;;;5002224;28;20654;-75
2023/12/25 04:38:20;;;;;;;12.05;1.77;;;;;;;;;;5008258;28;20191;-76
2023/12/25 04:40:45;;;;;;;6.15;1.45;;;;;;;;;;4990921;28;20191;-75
2023/12/25 04:43:11;;;;;;;7.85;1.42;;;;;;;;;;5010818;28;20218;-76
2023/12/25 04:45:36;;;;;;;12.02;1.45;;;;;;;;;;5007215;28;20230;-76
2023/12/25 04:48:02;;;;;;;8.75;1.60;;;;;;;;;;5009198;28;20658;-75
2023/12/25 04:50:27;;;;;;;11.15;1.55;;;;;;;;;;5007069;28;20701;-75
2023/12/25 04:52:53;;;;;;;10.13;1.13;;;;;;;;;;5023887;28;20270;-76
2023/12/25 04:55:18;;;;;;;7.35;1.20;;;;;;;;;;5007859;28;20194;-76
2023/12/25 04:57:44;;;;;;;5.97;1.20;;;;;;;;;;5009338;28;20275;-77
2023/12/25 05:00:10;;;;;;;10.52;1.50;;;;;;;;;;5008243;28;20256;-76
2023/12/25 05:02:35;;;;;;;8.18;1.92;;;;;;;;;;5024112;28;20269;-76
2023/12/25 05:05:02;;;;;;;8.02;1.42;;;;;;;;;;5009270;28;20280;-76
2023/12/25 05:07:27;;;;;;;9.25;1.25;;;;;;;;;;5008954;28;20217;-77
2023/12/25 05:09:53;;;;;;;7.10;1.40;;;;;;;;;;5034446;28;20292;-76
2023/12/25 05:12:18;;;;;;;8.15;1.20;;;;;;;;;;5021791;28;20666;-77
2023/12/25 05:14:45;;;;;;;5.63;1.40;;;;;;;;;;5010483;28;20198;-77
2023/12/25 05:17:11;;;;;;;8.73;1.20;;;;;;;;;;4999544;28;20195;-76
2023/12/25 05:19:36;;;;;;;5.70;1.60;;;;;;;;;;5018416;28;20241;-76
2023/12/25 05:22:04;;;;;;;7.57;1.45;;;;;;;;;;4991006;28;20221;-77
2023/12/25 05:24:29;;;;;;;6.00;1.30;;;;;;;;;;5009935;28;20201;-76
2023/12/25 05:26:55;;;;;;;11.25;1.50;;;;;;;;;;5006826;28;20281;-76
2023/12/25 05:29:20;;;;;;;6.32;1.42;;;;;;;;;;5010421;28;20194;-76
2023/12/25 05:31:46;;;;;;;7.18;1.42;;;;;;;;;;5010837;28;20196;-77
2023/12/25 05:34:11;;;;;;;6.60;1.73;;;;;;;;;;5027041;28;20401;-77
2023/12/25 05:36:37;;;;;;;9.20;1.20;;;;;;;;;;5011057;28;20211;-77
2023/12/25 05:39:03;;;;;;;8.23;1.35;;;;;;;;;;5029139;28;20196;-77
2023/12/25 05:41:29;;;;;;;7.05;1.60;;;;;;;;;;5026275;28;20661;-76
2023/12/25 05:43:54;;;;;;;10.48;1.40;;;;;;;;;;4996957;28;20189;-77
2023/12/25 05:46:20;;;;;;;7.95;1.20;;;;;;;;;;5006747;28;20266;-77
2023/12/25 05:48:46;;;;;;;7.88;1.42;;;;;;;;;;5028086;28;20217;-76
2023/12/25 05:51:11;;;;;;;5.72;1.05;;;;;;;;;;5010401;28;20205;-76
2023/12/25 05:53:37;;;;;;;6.22;1.58;;;;;;;;;;5029003;28;20626;-77
2023/12/25 05:56:03;;;;;;;6.55;1.30;;;;;;;;;;4990920;28;20210;-76
2023/12/25 05:58:29;;;;;;;7.10;1.45;;;;;;;;;;5027220;28;20197;-76
2023/12/25 06:00:54;;;;;;;9.90;2.03;;;;;;;;;;5016958;28;20183;-74
2023/12/25 06:03:20;;;;;;;5.25;1.15;;;;;;;;;;5019588;28;20214;-77
2023/12/25 06:05:45;;;;;;;7.82;1.55;;;;;;;;;;5009058;28;20390;-76
2023/12/25 06:08:11;;;;;;;9.07;1.60;;;;;;;;;;5028434;28;20187;-76
2023/12/25 06:10:36;;;;;;;6.53;0.88;;;;;;;;;;5028866;28;20202;-75
2023/12/25 06:13:02;;;;;;;4.45;0.80;;;;;;;;;;5014066;28;20182;-77
2023/12/25 06:15:28;;;;;;;5.97;1.27;;;;;;;;;;5013010;28;20265;-75
2023/12/25 06:17:53;;;;;;;7.30;1.60;;;;;;;;;;5012862;28;20664;-77
2023/12/25 06:20:20;;;;;;;7.30;1.27;;;;;;;;;;5007028;28;20246;-75
2023/12/25 06:22:46;;;;;;;9.23;1.80;;;;;;;;;;5006326;28;20207;-77
2023/12/25 06:25:11;;;;;;;9.57;1.70;;;;;;;;;;5009062;28;20201;-75
2023/12/25 06:27:37;;;;;;;8.93;1.33;;;;;;;;;;5023764;28;20619;-76
2023/12/25 06:30:04;;;;;;;7.55;1.40;;;;;;;;;;4993784;28;20187;-77
2023/12/25 06:32:30;;;;;;;5.28;1.45;;;;;;;;;;5019362;28;20206;-76
2023/12/25 06:34:55;;;;;;;8.02;1.52;;;;;;;;;;5010472;28;20642;-77
2023/12/25 06:37:21;;;;;;;10.57;1.88;;;;;;;;;;5009604;28;20195;-76
2023/12/25 06:39:46;;;;;;;8.15;1.33;;;;;;;;;;5010314;28;20195;-77
2023/12/25 06:42:16;;;;;;;9.02;1.30;;;;;;;;;;5009892;28;20207;-76
2023/12/25 06:44:41;;;;;;;7.15;1.52;;;;;;;;;;5017577;28;20191;-77
2023/12/25 06:47:07;;;;;;;7.95;1.55;;;;;;;;;;5009787;28;20205;-76
2023/12/25 06:49:32;;;;;;;11.25;1.50;;;;;;;;;;5009654;28;20222;-76
2023/12/25 06:51:59;;;;;;;7.60;1.58;;;;;;;;;;5009289;28;20191;-77
2023/12/25 06:54:24;;;;;;;7.20;1.63;;;;;;;;;;4989547;28;20534;-75
2023/12/25 06:56:49;;;;;;;10.05;1.60;;;;;;;;;;5004563;28;20187;-77
2023/12/25 06:59:15;;;;;;;9.18;1.45;;;;;;;;;;4992063;28;20681;-76
2023/12/25 07:01:41;;;;;;;10.63;1.33;;;;;;;;;;5011081;28;20241;-77
2023/12/25 07:04:08;;;;;;;6.65;1.60;;;;;;;;;;4987065;28;20433;-77
2023/12/25 07:06:33;;;;;;;8.23;1.40;;;;;;;;;;5008340;28;20206;-76
2023/12/25 07:08:59;;;;;;;12.25;1.75;;;;;;;;;;5006613;28;20187;-75
2023/12/25 07:11:24;;;;;;;12.00;1.85;;;;;;;;;;5014946;28;20194;-77
2023/12/25 07:13:50;;;;;;;6.38;1.55;;;;;;;;;;5011519;28;20194;-76
2023/12/25 07:16:22;;;;;;;8.98;1.40;;;;;;;;;;5009612;28;20194;-76
2023/12/25 07:18:50;;;;;;;14.25;1.77;;;;;;;;;;5013313;28;20233;-76
2023/12/25 07:21:15;;;;;;;10.93;2.00;;;;;;;;;;5011985;28;20280;-75
2023/12/25 07:23:41;;;;;;;7.80;1.80;;;;;;;;;;5012544;28;20633;-75
2023/12/25 07:26:07;;;;;;;9.93;1.63;;;;;;;;;;5014983;28;20182;-76
2023/12/25 07:28:33;;;;;;;9.38;2.65;;;;;;;;;;5010045;28;20674;-75
2023/12/25 07:31:00;;;;;;;9.57;1.75;;;;;;;;;;5023054;28;20206;-78
2023/12/25 07:33:25;;;;;;;8.82;1.60;;;;;;;;;;5028503;28;20292;-74
2023/12/25 07:35:50;;;;;;;12.60;1.40;;;;;;;;;;5015642;28;20269;-77
2023/12/25 07:38:16;;;;;;;6.93;1.40;;;;;;;;;;5008957;28;20247;-76
2023/12/25 07:40:41;;;;;;;10.25;1.75;;;;;;;;;;5009693;28;20289;-77
2023/12/25 07:43:09;;;;;;;13.25;1.55;;;;;;;;;;5009803;28;20213;-76
2023/12/25 07:45:35;;;;;;;8.73;1.73;;;;;;;;;;5027831;28;20624;-76
2023/12/25 07:48:01;;;;;;;10.23;1.88;;;;;;;;;;5007263;28;20217;-76
2023/12/25 07:50:26;;;;;;;12.82;1.80;;;;;;;;;;5026975;28;20190;-76
2023/12/25 07:52:52;;;;;;;13.02;1.83;;;;;;;;;;5018559;28;20685;-76
2023/12/25 07:55:17;;;;;;;9.55;1.50;;;;;;;;;;4999205;28;20663;-76
2023/12/25 07:57:43;;;;;;;10.10;1.67;;;;;;;;;;5029526;28;20685;-76
2023/12/25 08:00:09;;;;;;;11.50;1.80;;;;;;;;;;5026288;28;20192;-76
2023/12/25 08:02:34;;;;;;;8.02;1.60;;;;;;;;;;5029318;28;20257;-76
2023/12/25 08:05:00;;;;;;;11.60;1.95;;;;;;;;;;5029726;28;20209;-75
2023/12/25 08:07:25;;;;;;;9.60;1.55;;;;;;;;;;5028040;28;20182;-75
2023/12/25 08:09:50;;;;;;;8.27;1.38;;;;;;;;;;5010244;28;20270;-76
2023/12/25 08:12:16;;;;;;;17.00;2.50;;;;;;;;;;5006495;28;20187;-77
2023/12/25 08:14:41;;;;;;;14.13;1.80;;;;;;;;;;5024998;28;20251;-77
2023/12/25 08:17:07;;;;;;;10.95;1.63;;;;;;;;;;5024094;28;20182;-76
2023/12/25 08:19:32;;;;;;;9.75;1.83;;;;;;;;;;5007161;28;20242;-77
2023/12/25 08:21:58;;;;;;;7.65;1.67;;;;;;;;;;5026925;28;20240;-76
2023/12/25 08:24:25;;;;;;;8.32;1.58;;;;;;;;;;5029052;28;20269;-76
2023/12/25 08:26:51;;;;;;;8.98;1.42;;;;;;;;;;4994470;28;20657;-77
2023/12/25 08:29:17;;;;;;;12.70;1.98;;;;;;;;;;5028226;28;20269;-77
2023/12/25 08:31:42;;;;;;;9.75;1.95;;;;;;;;;;5008646;28;20285;-76
2023/12/25 08:34:08;;;;;;;9.07;1.40;;;;;;;;;;5027293;28;20186;-77
2023/12/25 08:36:34;;;;;;;8.95;2.22;;;;;;;;;;5025849;28;20198;-77
2023/12/25 08:38:59;;;;;;;7.47;1.65;;;;;;;;;;5028057;28;20247;-76
2023/12/25 08:41:24;;;;;;;9.13;1.48;;;;;;;;;;4993202;28;20467;-77
2023/12/25 08:43:50;;;;;;;7.25;1.40;;;;;;;;;;5028090;28;20807;-76
2023/12/25 08:46:15;;;;;;;8.93;1.50;;;;;;;;;;5034958;28;20189;-76
2023/12/25 08:48:41;;;;;;;10.95;1.80;;;;;;;;;;5008358;28;20195;-77
2023/12/25 08:51:06;;;;;;;10.27;1.73;;;;;;;;;;5010610;28;20695;-76
2023/12/25 08:53:32;;;;;;;7.07;1.50;;;;;;;;;;5011020;28;20598;-76
2023/12/25 08:55:58;;;;;;;9.80;1.95;;;;;;;;;;5025019;28;20191;-76
2023/12/25 08:58:24;;;;;;;7.18;1.20;;;;;;;;;;5012610;28;20185;-76
2023/12/25 09:00:50;;;;;;;6.22;1.27;;;;;;;;;;5019762;28;20725;-76
2023/12/25 09:03:16;;;;;;;7.72;1.58;;;;;;;;;;5017440;28;20534;-77
2023/12/25 09:05:41;;;;;;;10.93;1.52;;;;;;;;;;4994912;28;20209;-77
2023/12/25 09:08:07;;;;;;;5.63;1.35;;;;;;;;;;4994940;28;20216;-75
2023/12/25 09:10:34;;;;;;;12.57;1.70;;;;;;;;;;5029033;28;20221;-75
2023/12/25 09:12:59;;;;;;;6.18;1.58;;;;;;;;;;5001913;28;20521;-74
2023/12/25 09:15:25;;;;;;;11.75;1.13;;;;;;;;;;5021581;28;20182;-74
2023/12/25 09:17:50;;;;;;;9.30;1.48;;;;;;;;;;4994833;28;20206;-76
2023/12/25 09:20:16;;;;;;;9.52;1.45;;;;;;;;;;5008943;28;20308;-76
2023/12/25 09:22:42;;;;;;;9.02;1.38;;;;;;;;;;5027398;28;20202;-76
2023/12/25 09:25:07;;;;;;;9.35;1.52;;;;;;;;;;5016991;28;20217;-76
2023/12/25 09:27:33;;;;;;;9.40;1.88;;;;;;;;;;5022532;28;20244;-76
2023/12/25 09:29:58;;;;;;;8.25;1.50;;;;;;;;;;5004548;28;20244;-76
2023/12/25 09:32:24;;;;;;;7.20;1.33;;;;;;;;;;5012500;28;20507;-76
2023/12/25 09:34:50;;;;;;;6.30;1.38;;;;;;;;;;5021568;28;20204;-76
2023/12/25 09:37:15;;;;;;;7.65;1.23;;;;;;;;;;5009517;28;20186;-76
2023/12/25 09:39:43;;;;;;;8.05;1.40;;;;;;;;;;5026713;28;20276;-76
2023/12/25 09:42:10;;;;;;;4.93;1.00;;;;;;;;;;5011078;28;20214;-76
2023/12/25 09:44:39;;;;;;;9.25;1.77;;;;;;;;;;5036162;28;20190;-76
2023/12/25 09:47:08;;;;;;;8.90;1.45;;;;;;;;;;5012867;28;20269;-76
2023/12/25 09:49:35;;;;;;;8.27;1.33;;;;;;;;;;5007140;28;20626;-77
2023/12/25 09:52:02;;;;;;;7.32;1.70;;;;;;;;;;5026516;28;20190;-76
2023/12/25 09:54:28;;;;;;;7.03;1.30;;;;;;;;;;5023532;28;20582;-76
2023/12/25 09:56:55;;;;;;;8.25;1.70;;;;;;;;;;5029151;28;20311;-76
2023/12/25 09:59:21;;;;;;;7.40;2.05;;;;;;;;;;4997377;28;20219;-76
2023/12/25 10:01:48;;;;;;;8.85;1.60;;;;;;;;;;5030674;28;20198;-76
2023/12/25 10:04:14;;;;;;;12.15;2.33;;;;;;;;;;5031014;28;20596;-77
2023/12/25 10:06:42;;;;;;;9.98;1.65;;;;;;;;;;5032006;28;20270;-76
2023/12/25 10:09:08;;;;;;;8.20;1.50;;;;;;;;;;5010244;28;20256;-76
2023/12/25 10:11:34;;;;;;;10.52;1.77;;;;;;;;;;5026732;28;20618;-76
2023/12/25 10:14:01;;;;;;;5.85;1.40;;;;;;;;;;5028752;28;20255;-76
2023/12/25 10:16:28;;;;;;;9.65;2.33;;;;;;;;;;5013318;28;20479;-76
2023/12/25 10:18:55;;;;;;;10.75;2.40;;;;;;;;;;5024224;28;20257;-75
2023/12/25 10:21:21;;;;;;;14.13;1.80;;;;;;;;;;5009935;28;20189;-76
2023/12/25 10:23:47;;;;;;;9.88;1.80;;;;;;;;;;5012420;28;20225;-76
2023/12/25 10:26:13;;;;;;;7.78;1.15;;;;;;;;;;5011915;28;20509;-76
2023/12/25 10:28:38;;;;;;;8.70;1.60;;;;;;;;;;5030046;28;20608;-76
2023/12/25 10:31:08;;;;;;;10.68;1.70;;;;;;;;;;5012531;28;20194;-75
2023/12/25 10:33:37;;;;;;;11.27;1.90;;;;;;;;;;4993853;28;20280;-76
2023/12/25 10:36:06;;;;;;;8.13;2.28;;;;;;;;;;5027937;28;20186;-76
2023/12/25 10:38:34;;;;;;;7.28;1.90;;;;;;;;;;5011077;28;20196;-75
2023/12/25 10:41:16;;;;;;;9.68;1.42;;;;;;;;;;5025430;28;20727;-75
2023/12/25 10:43:45;;;;;;;9.85;1.90;;;;;;;;;;5028531;28;20210;-75
2023/12/25 10:46:10;;;;;;;8.13;1.55;;;;;;;;;;5012689;28;20194;-75
2023/12/25 10:48:37;;;;;;;8.90;2.00;;;;;;;;;;5028416;28;20419;-76
2023/12/25 10:51:04;;;;;;;8.13;1.48;;;;;;;;;;5015347;28;20217;-76
2023/12/25 10:53:29;;;;;;;6.85;1.50;;;;;;;;;;5029265;28;20217;-76
2023/12/25 10:55:55;;;;;;;8.93;1.90;;;;;;;;;;5011692;28;20708;-75
2023/12/25 10:58:21;;;;;;;6.63;2.17;;;;;;;;;;5003059;28;20274;-76
2023/12/25 11:01:05;;;;;;;11.30;2.13;;;;;;;;;;5022277;28;20558;-75
2023/12/25 11:03:31;;;;;;;9.52;2.28;;;;;;;;;;5025671;28;20209;-75
2023/12/25 11:05:58;;;;;;;6.65;1.88;;;;;;;;;;5011331;28;20206;-74
2023/12/25 11:08:23;;;;;;;6.63;2.05;;;;;;;;;;5011239;28;20193;-75
2023/12/25 11:10:51;;;;;;;10.75;4.05;;;;;;;;;;5011662;28;20297;-75
2023/12/25 11:13:17;;;;;;;9.98;2.55;;;;;;;;;;5029453;28;20565;-76
2023/12/25 11:15:42;;;;;;;11.77;2.20;;;;;;;;;;5010062;28;20194;-76
2023/12/25 11:18:09;;;;;;;6.65;1.77;;;;;;;;;;5026977;28;20599;-75
2023/12/25 11:20:35;;;;;;;8.25;2.30;;;;;;;;;;5003335;28;20522;-76
2023/12/25 11:23:02;;;;;;;7.78;2.38;;;;;;;;;;5027068;28;20229;-75
2023/12/25 11:25:32;;;;;;;6.95;2.28;;;;;;;;;;5027924;28;20205;-76
2023/12/25 11:28:02;;;;;;;10.63;3.67;;;;;;;;;;5028500;28;20243;-75
2023/12/25 11:30:27;;;;;;;12.00;3.65;;;;;;;;;;5024404;28;20186;-75
2023/12/25 11:32:54;;;;;;;9.52;3.15;;;;;;;;;;5011542;28;20205;-76
2023/12/25 11:35:29;;;;;;;10.35;2.50;;;;;;;;;;5027264;28;20730;-75
2023/12/25 11:38:17;;;;;;;7.72;2.22;;;;;;;;;;5023164;28;20697;-76
2023/12/25 11:40:44;;;;;;;9.60;2.10;;;;;;;;;;5023440;28;20225;-76
2023/12/25 11:43:09;;;;;;;7.13;1.90;;;;;;;;;;5016135;28;20219;-76
2023/12/25 11:45:43;;;;;;;8.05;2.40;;;;;;;;;;5027906;28;20533;-76
2023/12/25 11:48:10;;;;;;;6.13;1.83;;;;;;;;;;5036188;28;20194;-76
2023/12/25 11:50:36;;;;;;;9.10;1.95;;;;;;;;;;5010490;28;20189;-75
2023/12/25 11:53:01;;;;;;;10.35;2.22;;;;;;;;;;5004554;28;20190;-75
2023/12/25 11:55:27;;;;;;;9.55;2.30;;;;;;;;;;5027925;28;20680;-75
2023/12/25 11:57:52;;;;;;;6.93;2.50;;;;;;;;;;5010282;28;20228;-76
2023/12/25 12:00:29;;;;;;;14.45;2.30;;;;;;;;;;5028395;28;20232;-76
2023/12/25 12:02:55;;;;;;;7.30;1.95;;;;;;;;;;5010927;28;20744;-76
2023/12/25 12:05:21;;;;;;;9.43;2.10;;;;;;;;;;5020650;28;20292;-76
2023/12/25 12:07:47;;;;;;;9.80;1.83;;;;;;;;;;5026364;28;20190;-76
2023/12/25 12:10:14;;;;;;;10.18;2.25;;;;;;;;;;5029667;28;20345;-76
2023/12/25 12:12:41;;;;;;;7.38;2.10;;;;;;;;;;5000465;28;20232;-75
2023/12/25 12:15:08;;;;;;;11.52;2.35;;;;;;;;;;5010101;28;20186;-76
2023/12/25 12:17:35;;;;;;;10.63;3.85;;;;;;;;;;5028515;28;20692;-76
2023/12/25 12:20:02;;;;;;;11.63;4.15;;;;;;;;;;5017496;28;20724;-76
2023/12/25 12:22:28;;;;;;;9.40;5.50;;;;;;;;;;5015628;28;20222;-76
2023/12/25 12:25:14;;;;;;;9.25;4.10;;;;;;;;;;5010805;28;20625;-76
2023/12/25 12:27:40;;;;;;;5.82;2.70;;;;;;;;;;5009388;28;20261;-76
2023/12/25 12:30:07;;;;;;;6.70;2.75;;;;;;;;;;4998469;28;20186;-76
2023/12/25 12:32:34;;;;;;;8.05;2.70;;;;;;;;;;5013127;28;20265;-76
2023/12/25 12:34:59;;;;;;;8.93;2.13;;;;;;;;;;5001114;28;20187;-75
2023/12/25 12:37:25;;;;;;;6.32;2.30;;;;;;;;;;5005973;28;20195;-76
2023/12/25 12:39:50;;;;;;;5.43;2.38;;;;;;;;;;5021245;28;20278;-75
2023/12/25 12:42:16;;;;;;;6.47;2.20;;;;;;;;;;5008413;28;20708;-76
2023/12/25 12:44:47;;;;;;;6.53;2.00;;;;;;;;;;5006547;28;20239;-76
2023/12/25 12:47:13;;;;;;;5.65;2.13;;;;;;;;;;5007992;28;20864;-76
2023/12/25 12:49:38;;;;;;;4.13;1.65;;;;;;;;;;5005735;28;20186;-76
2023/12/25 12:52:05;;;;;;;4.53;1.70;;;;;;;;;;4997905;28;20179;-76
2023/12/25 12:54:31;;;;;;;6.25;1.73;;;;;;;;;;5001651;28;20186;-76
2023/12/25 12:56:56;;;;;;;4.72;1.58;;;;;;;;;;4999080;28;20197;-76
2023/12/25 12:59:22;;;;;;;4.38;1.67;;;;;;;;;;5002656;28;20190;-76
2023/12/25 13:01:47;;;;;;;8.48;1.60;;;;;;;;;;5009636;28;20214;-76
2023/12/25 13:04:14;;;;;;;4.85;1.85;;;;;;;;;;5023414;28;20240;-76
2023/12/25 13:06:40;;;;;;;7.47;1.70;;;;;;;;;;5008585;28;20186;-76
2023/12/25 13:09:05;;;;;;;4.10;1.40;;;;;;;;;;5001030;28;20191;-76
2023/12/25 13:11:31;;;;;;;3.78;1.10;;;;;;;;;;5008263;28;20506;-76
2023/12/25 13:13:56;;;;;;;3.83;1.30;;;;;;;;;;5005299;28;20192;-76
2023/12/25 13:16:22;;;;;;;6.15;1.38;;;;;;;;;;5026246;28;20194;-77
2023/12/25 13:18:47;;;;;;;4.22;1.20;;;;;;;;;;4993823;28;20226;-76
2023/12/25 13:21:14;;;;;;;4.57;1.40;;;;;;;;;;5012586;28;20190;-75
2023/12/25 13:23:42;;;;;;;3.58;1.13;;;;;;;;;;5013160;28;20214;-77
2023/12/25 13:26:08;;;;;;;6.13;1.50;;;;;;;;;;5012644;28;20191;-76
2023/12/25 13:28:33;;;;;;;4.32;1.30;;;;;;;;;;5017036;28;20187;-77
2023/12/25 13:30:59;;;;;;;5.47;1.63;;;;;;;;;;5011004;28;20494;-76
2023/12/25 13:33:24;;;;;;;7.15;1.92;;;;;;;;;;5010120;28;20194;-76
2023/12/25 13:35:50;;;;;;;3.78;1.60;;;;;;;;;;5004082;28;20193;-76
2023/12/25 13:38:15;;;;;;;5.70;1.73;;;;;;;;;;5006843;28;20229;-76
2023/12/25 13:40:41;;;;;;;4.55;1.65;;;;;;;;;;5009425;28;20187;-76
2023/12/25 13:43:07;;;;;;;6.95;1.60;;;;;;;;;;5011401;28;20233;-76
2023/12/25 13:45:32;;;;;;;5.90;1.52;;;;;;;;;;5012994;28;20214;-76
2023/12/25 13:47:58;;;;;;;6.85;1.67;;;;;;;;;;5009019;28;20186;-76
2023/12/25 13:50:23;;;;;;;6.32;1.30;;;;;;;;;;4991085;28;20528;-76
2023/12/25 13:52:49;;;;;;;6.47;1.25;;;;;;;;;;5011139;28;20237;-76
2023/12/25 13:55:15;;;;;;;6.75;1.90;;;;;;;;;;5007065;28;20186;-77
2023/12/25 13:57:41;;;;;;;4.93;1.42;;;;;;;;;;5008328;28;20190;-76
2023/12/25 14:00:09;;;;;;;7.68;1.48;;;;;;;;;;5009108;28;20557;-76
2023/12/25 14:02:38;;;;;;;6.05;1.38;;;;;;;;;;5006147;28;20248;-77
2023/12/25 14:05:04;;;;;;;7.88;1.80;;;;;;;;;;5028734;28;20191;-76
2023/12/25 14:07:29;;;;;;;6.15;1.33;;;;;;;;;;5001067;28;20264;-75
2023/12/25 14:09:55;;;;;;;7.90;1.90;;;;;;;;;;5011269;28;20186;-76
2023/12/25 14:12:20;;;;;;;8.35;2.60;;;;;;;;;;5010421;28;20658;-76
2023/12/25 14:14:46;;;;;;;8.38;2.80;;;;;;;;;;5009257;28;20650;-76
2023/12/25 14:17:11;;;;;;;9.25;2.90;;;;;;;;;;5024700;28;20608;-76
2023/12/25 14:19:37;;;;;;;7.55;3.40;;;;;;;;;;5008829;28;20239;-76
2023/12/25 14:22:06;;;;;;;10.25;3.08;;;;;;;;;;5010935;28;20199;-76
2023/12/25 14:24:37;;;;;;;7.15;2.97;;;;;;;;;;4994687;28;20245;-76
2023/12/25 14:27:05;;;;;;;6.88;2.10;;;;;;;;;;4994071;28;20187;-76
2023/12/25 14:29:31;;;;;;;3.80;1.70;;;;;;;;;;4990770;28;20194;-76
2023/12/25 14:31:56;;;;;;;4.63;1.48;;;;;;;;;;5002837;28;20186;-76
2023/12/25 14:34:22;;;;;;;7.18;1.88;;;;;;;;;;4991367;28;20192;-75